Time;durP1;ratioP1;P1;durP2;ratioP2;P2;SDS_P1;SDS_P2;PMS_P1;PMS_P2;Temp;Humidity;BMP_temperature;BMP_pressure;BME280_temperature;BME280_humidity;BME280_pressure;Samples;Min_cycle;Max_cycle;Signal;HPM_P1;HPM_P2
2023/04/30 00:01:37;;;;;;;5.65;2.50;;;;;;;;;;4991302;28;20142;-86
2023/04/30 00:04:03;;;;;;;3.35;2.67;;;;;;;;;;5001932;28;20072;-85
2023/04/30 00:06:28;;;;;;;4.38;2.85;;;;;;;;;;5006151;28;20045;-86
2023/04/30 00:08:54;;;;;;;4.57;2.70;;;;;;;;;;5008756;28;20472;-86
2023/04/30 00:11:19;;;;;;;3.22;2.63;;;;;;;;;;5011557;28;20026;-85
2023/04/30 00:13:45;;;;;;;6.10;3.40;;;;;;;;;;4994630;28;20041;-86
2023/04/30 00:16:10;;;;;;;5.07;3.40;;;;;;;;;;4997554;28;20060;-86
2023/04/30 00:18:37;;;;;;;6.28;3.20;;;;;;;;;;4998924;28;20619;-85
2023/04/30 00:21:03;;;;;;;3.70;3.10;;;;;;;;;;5003781;28;20030;-85
2023/04/30 00:23:28;;;;;;;3.15;2.58;;;;;;;;;;5005111;28;20034;-86
2023/04/30 00:25:53;;;;;;;4.68;2.30;;;;;;;;;;5015238;28;20033;-86
2023/04/30 00:28:19;;;;;;;3.72;2.63;;;;;;;;;;5011510;28;20073;-86
2023/04/30 00:30:45;;;;;;;3.85;2.25;;;;;;;;;;5013276;28;20037;-85
2023/04/30 00:33:11;;;;;;;3.22;2.15;;;;;;;;;;5001674;28;20030;-86
2023/04/30 00:35:36;;;;;;;2.95;2.17;;;;;;;;;;5004707;28;20092;-86
2023/04/30 00:38:01;;;;;;;4.05;2.25;;;;;;;;;;5005210;28;20493;-85
2023/04/30 00:40:28;;;;;;;5.13;2.35;;;;;;;;;;5018424;28;20034;-86
2023/04/30 00:42:54;;;;;;;2.80;2.30;;;;;;;;;;5012677;28;20038;-86
2023/04/30 00:45:22;;;;;;;3.42;2.00;;;;;;;;;;5015264;28;20764;-86
2023/04/30 00:47:48;;;;;;;3.40;2.40;;;;;;;;;;5019113;28;20037;-85
2023/04/30 00:50:17;;;;;;;3.70;2.50;;;;;;;;;;4999428;28;20465;-86
2023/04/30 00:52:43;;;;;;;4.15;2.75;;;;;;;;;;5004993;28;20085;-85
2023/04/30 00:55:13;;;;;;;4.68;2.58;;;;;;;;;;5007195;28;20472;-85
2023/04/30 00:57:39;;;;;;;3.30;2.55;;;;;;;;;;5012102;28;20775;-86
2023/04/30 01:00:08;;;;;;;4.82;2.78;;;;;;;;;;5010920;28;20030;-86
2023/04/30 01:02:34;;;;;;;7.03;2.55;;;;;;;;;;4998517;28;20117;-85
2023/04/30 01:05:03;;;;;;;5.32;3.00;;;;;;;;;;5012609;28;20587;-85
2023/04/30 01:07:30;;;;;;;3.28;2.75;;;;;;;;;;5016839;28;20068;-85
2023/04/30 01:09:56;;;;;;;3.50;2.75;;;;;;;;;;5003134;28;20034;-85
2023/04/30 01:12:27;;;;;;;3.17;2.60;;;;;;;;;;5015450;28;20064;-85
2023/04/30 01:15:08;;;;;;;4.45;2.60;;;;;;;;;;5010742;28;20072;-85
2023/04/30 01:17:45;;;;;;;4.47;2.60;;;;;;;;;;5014476;28;20038;-86
2023/04/30 01:20:12;;;;;;;3.78;2.45;;;;;;;;;;5016852;28;20507;-85
2023/04/30 01:22:43;;;;;;;3.30;2.20;;;;;;;;;;5001309;28;20501;-83
2023/04/30 01:25:30;;;;;;;5.53;2.60;;;;;;;;;;5003986;28;20038;-86
2023/04/30 01:28:05;;;;;;;4.32;2.80;;;;;;;;;;5007317;28;20041;-85
2023/04/30 01:30:33;;;;;;;3.42;2.70;;;;;;;;;;5006951;28;20041;-85
2023/04/30 01:32:59;;;;;;;5.20;2.50;;;;;;;;;;4975858;28;20035;-85
2023/04/30 01:35:43;;;;;;;4.25;2.80;;;;;;;;;;5000096;28;20035;-86
2023/04/30 01:38:27;;;;;;;6.80;2.83;;;;;;;;;;5002283;28;20030;-86
2023/04/30 01:41:15;;;;;;;5.20;3.03;;;;;;;;;;5012886;28;20030;-86
2023/04/30 01:44:22;;;;;;;4.78;3.05;;;;;;;;;;5018709;28;20031;-85
2023/04/30 01:47:03;;;;;;;3.78;3.13;;;;;;;;;;5025497;28;20066;-85
2023/04/30 01:49:47;;;;;;;4.20;3.30;;;;;;;;;;5013158;28;20500;-86
2023/04/30 01:52:27;;;;;;;;;;;;;;;;;;4996560;28;20065;-85
2023/04/30 01:54:59;;;;;;;5.20;3.35;;;;;;;;;;4999830;28;19948;-85
2023/04/30 01:57:34;;;;;;;4.60;3.60;;;;;;;;;;5016581;28;20042;-85
2023/04/30 02:00:00;;;;;;;4.53;3.58;;;;;;;;;;4990083;28;20031;-85
2023/04/30 02:02:25;;;;;;;4.22;3.35;;;;;;;;;;5009534;28;20101;-86
2023/04/30 02:04:51;;;;;;;3.65;3.10;;;;;;;;;;5006568;28;20036;-85
2023/04/30 02:07:36;;;;;;;4.72;3.50;;;;;;;;;;5013818;28;20101;-86
2023/04/30 02:10:03;;;;;;;6.53;3.30;;;;;;;;;;5015573;28;20034;-85
2023/04/30 02:12:29;;;;;;;4.15;2.58;;;;;;;;;;4982337;28;20042;-85
2023/04/30 02:14:54;;;;;;;5.75;2.90;;;;;;;;;;4998876;28;20030;-86
2023/04/30 02:17:20;;;;;;;4.10;3.20;;;;;;;;;;5002415;28;20035;-85
2023/04/30 02:19:45;;;;;;;3.72;3.10;;;;;;;;;;5006999;28;20026;-85
2023/04/30 02:22:11;;;;;;;4.30;3.60;;;;;;;;;;5008583;28;20041;-85
2023/04/30 02:24:36;;;;;;;4.80;3.45;;;;;;;;;;5014589;28;20726;-85
2023/04/30 02:27:02;;;;;;;4.45;3.25;;;;;;;;;;4991141;28;20408;-85
2023/04/30 02:29:28;;;;;;;3.80;3.03;;;;;;;;;;4997458;28;20034;-86
2023/04/30 02:31:53;;;;;;;3.70;2.92;;;;;;;;;;5004345;28;20165;-85
2023/04/30 02:34:18;;;;;;;4.65;2.80;;;;;;;;;;5004150;28;20094;-85
2023/04/30 02:36:44;;;;;;;5.68;3.20;;;;;;;;;;5008767;28;20038;-85
2023/04/30 02:39:09;;;;;;;5.15;3.20;;;;;;;;;;4999557;28;20061;-86
2023/04/30 02:41:35;;;;;;;4.93;3.13;;;;;;;;;;5015885;28;20068;-85
2023/04/30 02:44:02;;;;;;;4.63;3.30;;;;;;;;;;5006808;28;20492;-85
2023/04/30 02:46:27;;;;;;;5.10;3.20;;;;;;;;;;5002063;28;20042;-85
2023/04/30 02:48:53;;;;;;;4.90;3.60;;;;;;;;;;4986467;28;20070;-85
2023/04/30 02:51:18;;;;;;;5.03;3.53;;;;;;;;;;5015436;28;20038;-85
2023/04/30 02:53:44;;;;;;;5.00;3.50;;;;;;;;;;4998924;28;20411;-85
2023/04/30 02:56:09;;;;;;;5.10;3.63;;;;;;;;;;4996213;28;20037;-85
2023/04/30 02:58:34;;;;;;;5.97;3.70;;;;;;;;;;5016097;28;20420;-85
2023/04/30 03:01:00;;;;;;;5.05;3.70;;;;;;;;;;5002354;28;20149;-85
2023/04/30 03:03:25;;;;;;;6.28;4.07;;;;;;;;;;5001544;28;20026;-85
2023/04/30 03:05:51;;;;;;;4.88;3.50;;;;;;;;;;4997014;28;20416;-85
2023/04/30 03:08:16;;;;;;;5.95;3.67;;;;;;;;;;5005850;28;20038;-86
2023/04/30 03:10:42;;;;;;;6.75;3.83;;;;;;;;;;5009633;28;20082;-85
2023/04/30 03:13:08;;;;;;;8.57;4.00;;;;;;;;;;5013083;28;20465;-85
2023/04/30 03:15:36;;;;;;;5.10;3.92;;;;;;;;;;5016334;28;20034;-86
2023/04/30 03:18:02;;;;;;;5.30;3.92;;;;;;;;;;4980693;28;20126;-85
2023/04/30 03:20:28;;;;;;;8.25;3.67;;;;;;;;;;5013776;28;20049;-85
2023/04/30 03:22:53;;;;;;;5.40;3.78;;;;;;;;;;5004804;28;20042;-85
2023/04/30 03:25:19;;;;;;;3.70;3.25;;;;;;;;;;5007788;28;20042;-85
2023/04/30 03:27:45;;;;;;;4.53;3.60;;;;;;;;;;5011721;28;20539;-85
2023/04/30 03:30:10;;;;;;;4.63;3.60;;;;;;;;;;5013683;28;20472;-85
2023/04/30 03:32:36;;;;;;;5.63;3.53;;;;;;;;;;5004083;28;20015;-86
2023/04/30 03:35:02;;;;;;;4.80;3.50;;;;;;;;;;5021062;28;20022;-85
2023/04/30 03:37:28;;;;;;;5.25;3.70;;;;;;;;;;5013245;28;20078;-85
2023/04/30 03:39:53;;;;;;;6.82;3.80;;;;;;;;;;5009393;28;20038;-85
2023/04/30 03:42:20;;;;;;;8.73;4.72;;;;;;;;;;4990223;28;20041;-85
2023/04/30 03:44:45;;;;;;;8.38;4.50;;;;;;;;;;5010737;28;20045;-85
2023/04/30 03:47:10;;;;;;;7.45;4.10;;;;;;;;;;5015190;28;20045;-85
2023/04/30 03:49:36;;;;;;;5.72;4.32;;;;;;;;;;4990804;28;20039;-85
2023/04/30 03:52:04;;;;;;;5.68;3.95;;;;;;;;;;4980014;28;20053;-85
2023/04/30 03:54:32;;;;;;;9.15;4.53;;;;;;;;;;4991775;28;20101;-85
2023/04/30 03:57:03;;;;;;;5.28;3.83;;;;;;;;;;5008151;28;20042;-84
2023/04/30 03:59:32;;;;;;;4.47;3.75;;;;;;;;;;5009051;28;20033;-85
2023/04/30 04:02:00;;;;;;;5.93;3.63;;;;;;;;;;4994454;28;20026;-85
2023/04/30 04:04:26;;;;;;;5.32;3.90;;;;;;;;;;5012001;28;20041;-85
2023/04/30 04:06:52;;;;;;;4.65;3.47;;;;;;;;;;4979765;28;20049;-85
2023/04/30 04:09:18;;;;;;;6.35;3.60;;;;;;;;;;4999028;28;20041;-86
2023/04/30 04:11:44;;;;;;;6.32;3.13;;;;;;;;;;5007741;28;20022;-85
2023/04/30 04:14:10;;;;;;;6.32;3.90;;;;;;;;;;5010641;28;20500;-85
2023/04/30 04:16:36;;;;;;;5.50;3.92;;;;;;;;;;5007344;28;20497;-85
2023/04/30 04:19:03;;;;;;;6.57;3.95;;;;;;;;;;5009840;28;20038;-85
2023/04/30 04:21:30;;;;;;;6.30;4.28;;;;;;;;;;5007067;28;20424;-85
2023/04/30 04:23:56;;;;;;;7.32;4.93;;;;;;;;;;4996445;28;20033;-85
2023/04/30 04:26:24;;;;;;;5.00;4.05;;;;;;;;;;5001579;28;20085;-86
2023/04/30 04:28:50;;;;;;;7.25;3.88;;;;;;;;;;5019962;28;20073;-85
2023/04/30 04:31:17;;;;;;;5.55;3.90;;;;;;;;;;5017062;28;20022;-85
2023/04/30 04:33:46;;;;;;;7.32;3.75;;;;;;;;;;5012966;28;20038;-85
2023/04/30 04:36:12;;;;;;;5.45;4.10;;;;;;;;;;5021186;28;20034;-85
2023/04/30 04:38:38;;;;;;;5.10;3.88;;;;;;;;;;5001994;28;20137;-85
2023/04/30 04:41:04;;;;;;;4.93;3.88;;;;;;;;;;5003772;28;20058;-84
2023/04/30 04:43:30;;;;;;;6.30;3.95;;;;;;;;;;5011061;28;20469;-86
2023/04/30 04:45:57;;;;;;;4.72;3.50;;;;;;;;;;5011792;28;20046;-86
2023/04/30 04:48:22;;;;;;;6.57;3.58;;;;;;;;;;5007680;28;20042;-85
2023/04/30 04:50:48;;;;;;;6.68;3.88;;;;;;;;;;4999835;28;20097;-86
2023/04/30 04:53:13;;;;;;;5.47;4.07;;;;;;;;;;5015740;28;20026;-86
2023/04/30 04:55:39;;;;;;;5.85;4.13;;;;;;;;;;4996987;28;20408;-85
2023/04/30 04:58:05;;;;;;;6.00;3.88;;;;;;;;;;4999123;28;20121;-85
2023/04/30 05:00:32;;;;;;;5.25;3.80;;;;;;;;;;5001778;28;20121;-85
2023/04/30 05:02:58;;;;;;;6.25;4.35;;;;;;;;;;5009488;28;20035;-86
2023/04/30 05:05:24;;;;;;;6.13;4.30;;;;;;;;;;4992239;28;20041;-86
2023/04/30 05:07:51;;;;;;;5.60;4.18;;;;;;;;;;5011326;28;20053;-85
2023/04/30 05:10:16;;;;;;;5.32;3.92;;;;;;;;;;5010436;28;20129;-85
2023/04/30 05:12:42;;;;;;;6.28;4.30;;;;;;;;;;4977765;28;20065;-85
2023/04/30 05:15:08;;;;;;;7.43;4.65;;;;;;;;;;4980693;28;20086;-85
2023/04/30 05:17:33;;;;;;;5.40;4.03;;;;;;;;;;5001755;28;20093;-85
2023/04/30 05:20:00;;;;;;;6.38;4.40;;;;;;;;;;5009730;28;20526;-86
2023/04/30 05:22:25;;;;;;;5.93;4.38;;;;;;;;;;5013305;28;20128;-85
2023/04/30 05:24:51;;;;;;;7.70;4.00;;;;;;;;;;5015848;28;20069;-86
2023/04/30 05:27:17;;;;;;;10.35;5.20;;;;;;;;;;5009992;28;20444;-85
2023/04/30 05:29:42;;;;;;;6.38;4.40;;;;;;;;;;5002755;28;20031;-86
2023/04/30 05:32:08;;;;;;;6.75;4.53;;;;;;;;;;5004974;28;20057;-85
2023/04/30 05:34:33;;;;;;;6.20;4.70;;;;;;;;;;4999641;28;20044;-85
2023/04/30 05:37:00;;;;;;;4.75;3.92;;;;;;;;;;5009345;28;20068;-85
2023/04/30 05:39:26;;;;;;;7.78;4.82;;;;;;;;;;5012766;28;20038;-86
2023/04/30 05:41:51;;;;;;;7.78;4.68;;;;;;;;;;5016910;28;20045;-85
2023/04/30 05:44:16;;;;;;;6.90;4.85;;;;;;;;;;4996288;28;20046;-86
2023/04/30 05:46:42;;;;;;;6.35;4.72;;;;;;;;;;4999715;28;20039;-85
2023/04/30 05:49:08;;;;;;;6.80;4.70;;;;;;;;;;5001151;28;20049;-85
2023/04/30 05:51:33;;;;;;;9.40;5.05;;;;;;;;;;5008296;28;20065;-85
2023/04/30 05:53:59;;;;;;;6.43;4.40;;;;;;;;;;5010985;28;20042;-86
2023/04/30 05:56:25;;;;;;;8.60;4.93;;;;;;;;;;5008473;28;20038;-86
2023/04/30 05:58:51;;;;;;;7.55;4.43;;;;;;;;;;5012295;28;20116;-86
2023/04/30 06:01:19;;;;;;;7.18;5.07;;;;;;;;;;4985567;28;20041;-86
2023/04/30 06:03:44;;;;;;;7.13;5.28;;;;;;;;;;5014152;28;20038;-85
2023/04/30 06:06:10;;;;;;;8.13;5.45;;;;;;;;;;5003926;28;20109;-85
2023/04/30 06:08:35;;;;;;;9.70;5.63;;;;;;;;;;5008836;28;20046;-85
2023/04/30 06:11:02;;;;;;;7.68;5.35;;;;;;;;;;5011296;28;20043;-83
2023/04/30 06:13:28;;;;;;;7.15;5.35;;;;;;;;;;5011816;28;20518;-85
2023/04/30 06:15:53;;;;;;;9.50;5.63;;;;;;;;;;5012173;28;20038;-84
2023/04/30 06:18:19;;;;;;;9.35;6.15;;;;;;;;;;4982363;28;20052;-86
2023/04/30 06:20:45;;;;;;;8.60;5.78;;;;;;;;;;5004033;28;20377;-85
2023/04/30 06:23:10;;;;;;;8.95;6.68;;;;;;;;;;5003555;28;20038;-84
2023/04/30 06:25:36;;;;;;;7.60;5.70;;;;;;;;;;5007468;28;20046;-86
2023/04/30 06:28:01;;;;;;;11.10;6.65;;;;;;;;;;5012683;28;20044;-85
2023/04/30 06:30:29;;;;;;;6.97;5.38;;;;;;;;;;4999244;28;20518;-85
2023/04/30 06:32:54;;;;;;;9.65;6.20;;;;;;;;;;5010079;28;20038;-85
2023/04/30 06:35:20;;;;;;;9.48;5.60;;;;;;;;;;5000454;28;20042;-85
2023/04/30 06:37:45;;;;;;;7.32;5.32;;;;;;;;;;5003504;28;20045;-85
2023/04/30 06:40:11;;;;;;;7.68;5.47;;;;;;;;;;5003329;28;20389;-84
2023/04/30 06:42:37;;;;;;;7.03;5.50;;;;;;;;;;5013621;28;20095;-84
2023/04/30 06:45:05;;;;;;;9.73;6.10;;;;;;;;;;5022125;28;20030;-84
2023/04/30 06:47:35;;;;;;;7.65;5.32;;;;;;;;;;5013971;28;20458;-84
2023/04/30 06:50:01;;;;;;;7.45;5.13;;;;;;;;;;4993159;28;20044;-84
2023/04/30 06:52:27;;;;;;;8.63;5.63;;;;;;;;;;4982941;28;20031;-86
2023/04/30 06:54:52;;;;;;;9.00;5.93;;;;;;;;;;5003731;28;20141;-85
2023/04/30 06:57:18;;;;;;;6.93;5.55;;;;;;;;;;5015392;28;20037;-85
2023/04/30 06:59:43;;;;;;;9.23;6.57;;;;;;;;;;5009620;28;20560;-85
2023/04/30 07:02:09;;;;;;;8.15;6.03;;;;;;;;;;5012245;28;20118;-86
2023/04/30 07:04:35;;;;;;;8.07;5.90;;;;;;;;;;5015316;28;20041;-86
2023/04/30 07:07:01;;;;;;;8.95;6.57;;;;;;;;;;4999310;28;20026;-86
2023/04/30 07:09:27;;;;;;;7.93;5.10;;;;;;;;;;5000060;28;20049;-86
2023/04/30 07:11:53;;;;;;;8.10;5.75;;;;;;;;;;5004911;28;20404;-86
2023/04/30 07:14:20;;;;;;;6.88;5.35;;;;;;;;;;5001572;28;20051;-87
2023/04/30 07:16:45;;;;;;;8.00;5.60;;;;;;;;;;5010763;28;20029;-85
2023/04/30 07:19:11;;;;;;;8.23;5.60;;;;;;;;;;5011430;28;20049;-86
2023/04/30 07:21:36;;;;;;;9.23;5.72;;;;;;;;;;5012353;28;20064;-85
2023/04/30 07:24:02;;;;;;;7.72;5.60;;;;;;;;;;4987217;28;20065;-86
2023/04/30 07:26:27;;;;;;;9.80;7.00;;;;;;;;;;4982525;28;20039;-86
2023/04/30 07:28:53;;;;;;;8.90;6.15;;;;;;;;;;4988819;28;20026;-85
2023/04/30 07:31:19;;;;;;;8.93;5.53;;;;;;;;;;5005051;28;20053;-86
2023/04/30 07:33:44;;;;;;;10.52;6.40;;;;;;;;;;5011752;28;20034;-86
2023/04/30 07:36:10;;;;;;;10.35;6.60;;;;;;;;;;5011348;28;20038;-85
2023/04/30 07:38:35;;;;;;;9.02;6.30;;;;;;;;;;5001414;28;20069;-86
2023/04/30 07:41:02;;;;;;;8.02;6.18;;;;;;;;;;4997175;28;20511;-86
2023/04/30 07:43:28;;;;;;;8.02;6.18;;;;;;;;;;5003387;28;20037;-86
2023/04/30 07:45:53;;;;;;;7.72;6.13;;;;;;;;;;5006409;28;20137;-86
2023/04/30 07:48:20;;;;;;;8.95;6.20;;;;;;;;;;5015459;28;20077;-86
2023/04/30 07:50:49;;;;;;;9.88;6.25;;;;;;;;;;5010685;28;20030;-86
2023/04/30 07:53:14;;;;;;;8.20;6.35;;;;;;;;;;5001551;28;20112;-87
2023/04/30 07:55:40;;;;;;;9.48;6.65;;;;;;;;;;5000247;28;20558;-86
2023/04/30 07:58:06;;;;;;;10.13;6.40;;;;;;;;;;4990193;28;20038;-87
2023/04/30 08:00:31;;;;;;;10.88;6.88;;;;;;;;;;5000397;28;20113;-89
2023/04/30 08:02:58;;;;;;;9.80;7.05;;;;;;;;;;5002419;28;20038;-86
2023/04/30 08:05:25;;;;;;;12.00;7.32;;;;;;;;;;5009849;28;20050;-85
2023/04/30 08:07:51;;;;;;;9.35;7.15;;;;;;;;;;5012979;28;20050;-86
2023/04/30 08:10:17;;;;;;;10.55;6.65;;;;;;;;;;5014023;28;20128;-86
2023/04/30 08:12:42;;;;;;;8.32;6.72;;;;;;;;;;5001734;28;20106;-85
2023/04/30 08:15:08;;;;;;;9.73;6.55;;;;;;;;;;5002532;28;20065;-85
2023/04/30 08:17:34;;;;;;;8.23;6.55;;;;;;;;;;5003883;28;20189;-85
2023/04/30 08:20:00;;;;;;;12.00;7.05;;;;;;;;;;5007812;28;20038;-85
2023/04/30 08:22:26;;;;;;;9.25;6.60;;;;;;;;;;4989100;28;20489;-85
2023/04/30 08:24:52;;;;;;;9.15;6.30;;;;;;;;;;5011105;28;20036;-86
2023/04/30 08:27:17;;;;;;;9.15;6.70;;;;;;;;;;5011847;28;20131;-86
2023/04/30 08:29:42;;;;;;;9.43;6.72;;;;;;;;;;4998152;28;20041;-87
2023/04/30 08:32:08;;;;;;;8.95;6.20;;;;;;;;;;4999799;28;20049;-88
2023/04/30 08:34:34;;;;;;;9.77;6.68;;;;;;;;;;4993246;28;20101;-88
2023/04/30 08:37:00;;;;;;;10.52;6.60;;;;;;;;;;4990850;28;20121;-85
2023/04/30 08:39:26;;;;;;;11.15;6.95;;;;;;;;;;5004626;28;20574;-87
2023/04/30 08:41:58;;;;;;;10.80;7.65;;;;;;;;;;5016809;28;20021;-88
2023/04/30 08:44:26;;;;;;;8.60;6.63;;;;;;;;;;5018672;28;20103;-90
2023/04/30 08:46:55;;;;;;;8.52;6.53;;;;;;;;;;5006250;28;20023;-88
2023/04/30 08:49:21;;;;;;;9.38;6.57;;;;;;;;;;4994781;28;20412;-87
2023/04/30 08:51:48;;;;;;;8.73;6.60;;;;;;;;;;5003535;28;20129;-87
2023/04/30 08:54:16;;;;;;;7.22;5.55;;;;;;;;;;5008884;28;20516;-88
2023/04/30 08:56:43;;;;;;;10.70;5.95;;;;;;;;;;5007045;28;20042;-86
2023/04/30 08:59:09;;;;;;;10.23;6.47;;;;;;;;;;5012605;28;20069;-88
2023/04/30 09:01:34;;;;;;;7.20;5.90;;;;;;;;;;5001003;28;20045;-87
2023/04/30 09:04:03;;;;;;;7.30;5.90;;;;;;;;;;5005566;28;20050;-88
2023/04/30 09:06:28;;;;;;;9.98;6.38;;;;;;;;;;4994249;28;20066;-88
2023/04/30 09:08:54;;;;;;;7.93;5.78;;;;;;;;;;5007252;28;20045;-87
2023/04/30 09:11:27;;;;;;;6.82;5.50;;;;;;;;;;5008557;28;20061;-88
2023/04/30 09:13:56;;;;;;;8.43;5.40;;;;;;;;;;5012405;28;20038;-88
2023/04/30 09:16:22;;;;;;;8.27;5.05;;;;;;;;;;5022373;28;20030;-88
2023/04/30 09:18:48;;;;;;;6.55;4.97;;;;;;;;;;4988016;28;20031;-88
2023/04/30 09:21:14;;;;;;;7.25;5.30;;;;;;;;;;5008701;28;20064;-88
2023/04/30 09:24:00;;;;;;;8.05;5.35;;;;;;;;;;5012406;28;20034;-88
2023/04/30 09:26:37;;;;;;;7.18;4.70;;;;;;;;;;4977898;28;20043;-87
2023/04/30 09:29:06;;;;;;;5.75;4.63;;;;;;;;;;4994418;28;20035;-88
2023/04/30 09:31:37;;;;;;;6.28;4.80;;;;;;;;;;5009170;28;20049;-88
2023/04/30 09:34:03;;;;;;;5.78;4.50;;;;;;;;;;5011029;28;20026;-88
2023/04/30 09:36:30;;;;;;;5.60;4.65;;;;;;;;;;5020397;28;20050;-89
2023/04/30 09:39:04;;;;;;;6.30;4.68;;;;;;;;;;5005524;28;20039;-88
2023/04/30 09:41:31;;;;;;;7.38;5.15;;;;;;;;;;5020116;28;20038;-87
2023/04/30 09:43:56;;;;;;;7.22;5.38;;;;;;;;;;5014905;28;20038;-88
2023/04/30 09:46:33;;;;;;;6.75;5.10;;;;;;;;;;5013368;28;20152;-88
2023/04/30 09:49:00;;;;;;;6.68;5.10;;;;;;;;;;5018820;28;20034;-87
2023/04/30 09:51:27;;;;;;;6.63;4.90;;;;;;;;;;4984543;28;20054;-87
2023/04/30 09:53:53;;;;;;;8.68;6.05;;;;;;;;;;4985217;28;20030;-87
2023/04/30 09:56:24;;;;;;;7.45;4.68;;;;;;;;;;4997478;28;20034;-87
2023/04/30 09:58:52;;;;;;;6.43;4.88;;;;;;;;;;5003198;28;20431;-88
2023/04/30 10:01:19;;;;;;;6.45;5.22;;;;;;;;;;5012602;28;20452;-89
2023/04/30 10:03:47;;;;;;;7.47;5.63;;;;;;;;;;5004309;28;20046;-87
2023/04/30 10:06:15;;;;;;;7.82;5.97;;;;;;;;;;5008538;28;20042;-88
2023/04/30 10:08:43;;;;;;;6.63;5.30;;;;;;;;;;5000928;28;20034;-87
2023/04/30 10:11:15;;;;;;;5.53;4.30;;;;;;;;;;5020127;28;20389;-86
2023/04/30 10:14:00;;;;;;;9.95;6.97;;;;;;;;;;5010679;28;20042;-88
2023/04/30 10:16:26;;;;;;;5.22;3.85;;;;;;;;;;4987644;28;20048;-87
2023/04/30 10:18:53;;;;;;;5.03;4.13;;;;;;;;;;5005849;28;20413;-86
2023/04/30 10:21:23;;;;;;;6.13;4.22;;;;;;;;;;5016103;28;20034;-89
2023/04/30 10:23:50;;;;;;;5.05;4.25;;;;;;;;;;5012109;28;20503;-88
2023/04/30 10:26:16;;;;;;;5.47;4.13;;;;;;;;;;4994638;28;20488;-87
2023/04/30 10:28:42;;;;;;;5.32;4.10;;;;;;;;;;5004498;28;20108;-88
2023/04/30 10:31:11;;;;;;;8.07;4.00;;;;;;;;;;4972990;28;20433;-87
2023/04/30 10:33:40;;;;;;;5.00;4.00;;;;;;;;;;5022487;28;20033;-88
2023/04/30 10:36:12;;;;;;;4.85;4.30;;;;;;;;;;5005502;28;20048;-88
2023/04/30 10:38:37;;;;;;;5.22;4.07;;;;;;;;;;4986460;28;20038;-88
2023/04/30 10:41:05;;;;;;;4.45;3.65;;;;;;;;;;5007909;28;20042;-88
2023/04/30 10:43:35;;;;;;;4.88;4.20;;;;;;;;;;5004704;28;20041;-88
2023/04/30 10:46:01;;;;;;;7.20;4.10;;;;;;;;;;4999645;28;20045;-87
2023/04/30 10:48:28;;;;;;;4.85;4.20;;;;;;;;;;5004687;28;20026;-88
2023/04/30 10:50:58;;;;;;;6.97;4.53;;;;;;;;;;5002355;28;20030;-89
2023/04/30 10:53:26;;;;;;;6.40;5.00;;;;;;;;;;5006661;28;20026;-90
2023/04/30 10:56:07;;;;;;;7.45;4.78;;;;;;;;;;4999515;28;20065;-87
2023/04/30 10:58:38;;;;;;;7.93;4.60;;;;;;;;;;4998421;28;20045;-86
2023/04/30 11:01:16;;;;;;;6.32;3.90;;;;;;;;;;4998891;28;20030;-86
2023/04/30 11:04:07;;;;;;;5.45;3.75;;;;;;;;;;4986389;28;20042;-86
2023/04/30 11:06:51;;;;;;;5.55;4.00;;;;;;;;;;4995640;28;20047;-88
2023/04/30 11:09:17;;;;;;;7.63;4.80;;;;;;;;;;4981591;28;20186;-88
2023/04/30 11:11:43;;;;;;;4.85;3.75;;;;;;;;;;4998358;28;20071;-88
2023/04/30 11:14:11;;;;;;;5.80;3.53;;;;;;;;;;4992782;28;20034;-87
2023/04/30 11:16:36;;;;;;;4.93;3.42;;;;;;;;;;4997549;28;20102;-87
2023/04/30 11:19:10;;;;;;;6.18;3.40;;;;;;;;;;4996423;28;20066;-87
2023/04/30 11:22:04;;;;;;;4.75;3.35;;;;;;;;;;5005049;28;20073;-86
2023/04/30 11:24:57;;;;;;;4.57;3.42;;;;;;;;;;4996130;28;20085;-87
2023/04/30 11:27:27;;;;;;;4.05;3.60;;;;;;;;;;5004288;28;20480;-88
2023/04/30 11:29:54;;;;;;;4.70;3.35;;;;;;;;;;4998215;28;20056;-87
2023/04/30 11:32:22;;;;;;;6.93;3.83;;;;;;;;;;5008759;28;20038;-86
2023/04/30 11:34:48;;;;;;;3.90;3.15;;;;;;;;;;5011721;28;20513;-86
2023/04/30 11:37:32;;;;;;;5.47;3.42;;;;;;;;;;5011613;28;20129;-87
2023/04/30 11:40:02;;;;;;;3.28;2.92;;;;;;;;;;4994040;28;20357;-87
2023/04/30 11:42:30;;;;;;;4.32;2.90;;;;;;;;;;4997472;28;20066;-87
2023/04/30 11:45:10;;;;;;;5.97;3.10;;;;;;;;;;5009930;28;20380;-87
2023/04/30 11:47:46;;;;;;;4.10;3.00;;;;;;;;;;5007186;28;20033;-88
2023/04/30 11:50:16;;;;;;;4.20;3.30;;;;;;;;;;5004661;28;20487;-86
2023/04/30 11:52:49;;;;;;;6.15;3.00;;;;;;;;;;4988720;28;20030;-87
2023/04/30 11:55:20;;;;;;;6.00;3.58;;;;;;;;;;4994097;28;20038;-88
2023/04/30 11:57:48;;;;;;;5.47;3.47;;;;;;;;;;5002446;28;20119;-90
2023/04/30 12:00:25;;;;;;;4.65;3.08;;;;;;;;;;4996000;28;20038;-91
2023/04/30 12:02:52;;;;;;;5.10;3.20;;;;;;;;;;5002632;28;20028;-90
2023/04/30 12:05:18;;;;;;;4.72;3.40;;;;;;;;;;4997343;28;20034;-90
2023/04/30 12:07:56;;;;;;;6.82;3.22;;;;;;;;;;4997377;28;20040;-91
2023/04/30 12:10:23;;;;;;;4.00;2.90;;;;;;;;;;5012774;28;20042;-90
2023/04/30 12:12:50;;;;;;;3.33;3.03;;;;;;;;;;4991799;28;20113;-91
2023/04/30 12:15:17;;;;;;;4.50;3.50;;;;;;;;;;4994871;28;20042;-90
2023/04/30 12:17:44;;;;;;;6.57;4.18;;;;;;;;;;4994725;28;20030;-90
2023/04/30 12:20:12;;;;;;;7.38;4.25;;;;;;;;;;4997391;28;20042;-89
2023/04/30 12:22:38;;;;;;;4.72;3.58;;;;;;;;;;4993217;28;20489;-90
2023/04/30 12:25:08;;;;;;;4.00;3.55;;;;;;;;;;5004735;28;20025;-89
2023/04/30 12:27:35;;;;;;;6.72;3.08;;;;;;;;;;4987779;28;20035;-89
2023/04/30 12:30:06;;;;;;;3.72;2.60;;;;;;;;;;4995140;28;20034;-89
2023/04/30 12:32:47;;;;;;;3.10;2.80;;;;;;;;;;5001159;28;20045;-84
2023/04/30 12:35:15;;;;;;;3.92;3.10;;;;;;;;;;5006594;28;20129;-88
2023/04/30 12:37:45;;;;;;;4.70;2.42;;;;;;;;;;4993402;28;20114;-88
2023/04/30 12:40:12;;;;;;;4.20;2.67;;;;;;;;;;4999658;28;20168;-87
2023/04/30 12:42:38;;;;;;;4.43;3.85;;;;;;;;;;4997061;28;20038;-87
2023/04/30 12:45:05;;;;;;;6.68;2.40;;;;;;;;;;5000008;28;20043;-88
2023/04/30 12:47:30;;;;;;;6.32;2.60;;;;;;;;;;4996890;28;20038;-88
2023/04/30 12:49:56;;;;;;;2.58;2.08;;;;;;;;;;5003066;28;20053;-88
2023/04/30 12:52:25;;;;;;;4.10;2.60;;;;;;;;;;5009535;28;20030;-88
2023/04/30 12:54:52;;;;;;;5.57;3.60;;;;;;;;;;5000812;28;20061;-88
2023/04/30 12:57:17;;;;;;;3.53;2.72;;;;;;;;;;4997964;28;20489;-88
2023/04/30 12:59:52;;;;;;;3.72;2.53;;;;;;;;;;4993164;28;20061;-88
2023/04/30 13:02:18;;;;;;;4.07;2.42;;;;;;;;;;4985831;28;20041;-88
2023/04/30 13:04:43;;;;;;;3.60;2.58;;;;;;;;;;4999068;28;20038;-88
2023/04/30 13:07:09;;;;;;;3.05;2.40;;;;;;;;;;5010832;28;20034;-88
2023/04/30 13:09:36;;;;;;;3.15;2.05;;;;;;;;;;5010926;28;20476;-88
2023/04/30 13:12:02;;;;;;;5.72;2.50;;;;;;;;;;5009674;28;20018;-88
2023/04/30 13:14:28;;;;;;;3.28;2.28;;;;;;;;;;4990924;28;20501;-88
2023/04/30 13:16:54;;;;;;;2.70;2.30;;;;;;;;;;4981954;28;20058;-88
2023/04/30 13:19:20;;;;;;;2.47;2.13;;;;;;;;;;4990008;28;20062;-88
2023/04/30 13:21:45;;;;;;;3.47;2.20;;;;;;;;;;4993108;28;20034;-86
2023/04/30 13:24:11;;;;;;;2.55;2.10;;;;;;;;;;4987101;28;20106;-88
2023/04/30 13:26:36;;;;;;;3.85;2.28;;;;;;;;;;5022135;28;20075;-88
2023/04/30 13:29:03;;;;;;;3.50;2.20;;;;;;;;;;4988758;28;20069;-88
2023/04/30 13:31:29;;;;;;;3.22;2.10;;;;;;;;;;4998737;28;20030;-88
2023/04/30 13:33:58;;;;;;;3.42;2.10;;;;;;;;;;5002977;28;20035;-89
2023/04/30 13:36:23;;;;;;;2.40;2.00;;;;;;;;;;4994678;28;20038;-88
2023/04/30 13:38:49;;;;;;;3.72;2.40;;;;;;;;;;4996395;28;20053;-87
2023/04/30 13:41:14;;;;;;;5.78;3.53;;;;;;;;;;5010362;28;20405;-88
2023/04/30 13:43:41;;;;;;;4.28;2.58;;;;;;;;;;4998923;28;20042;-88
2023/04/30 13:46:10;;;;;;;3.78;2.30;;;;;;;;;;4991580;28;20039;-88
2023/04/30 13:48:35;;;;;;;3.97;2.40;;;;;;;;;;4987132;28;20010;-88
2023/04/30 13:51:03;;;;;;;5.00;2.67;;;;;;;;;;4999346;28;20483;-88
2023/04/30 13:53:29;;;;;;;3.03;2.35;;;;;;;;;;4998994;28;20505;-89
2023/04/30 13:55:55;;;;;;;3.00;2.17;;;;;;;;;;4997325;28;20046;-89
2023/04/30 13:58:20;;;;;;;9.23;2.60;;;;;;;;;;4995267;28;20042;-89
2023/04/30 14:00:46;;;;;;;4.25;2.10;;;;;;;;;;5002886;28;20124;-88
2023/04/30 14:03:12;;;;;;;2.72;2.08;;;;;;;;;;5009526;28;20066;-88
2023/04/30 14:05:38;;;;;;;3.47;2.15;;;;;;;;;;5003323;28;20038;-88
2023/04/30 14:08:04;;;;;;;6.15;3.15;;;;;;;;;;4999243;28;20532;-89
2023/04/30 14:10:31;;;;;;;3.72;2.70;;;;;;;;;;4998869;28;20038;-89
2023/04/30 14:12:56;;;;;;;6.43;4.28;;;;;;;;;;5003560;28;20081;-88
2023/04/30 14:15:23;;;;;;;3.42;2.50;;;;;;;;;;4994472;28;20049;-87
2023/04/30 14:17:49;;;;;;;8.60;6.38;;;;;;;;;;5013635;28;20041;-88
2023/04/30 14:20:15;;;;;;;3.65;2.95;;;;;;;;;;4991249;28;20035;-88
2023/04/30 14:22:40;;;;;;;13.38;9.57;;;;;;;;;;5001432;28;20043;-87
2023/04/30 14:25:06;;;;;;;3.35;2.30;;;;;;;;;;4998958;28;20052;-89
2023/04/30 14:27:32;;;;;;;4.38;2.47;;;;;;;;;;5003804;28;20030;-88
2023/04/30 14:29:57;;;;;;;3.95;2.85;;;;;;;;;;4993417;28;20034;-87
2023/04/30 14:32:26;;;;;;;3.47;2.53;;;;;;;;;;5016050;28;20124;-87
2023/04/30 14:34:52;;;;;;;3.60;2.78;;;;;;;;;;5009922;28;20049;-87
2023/04/30 14:37:18;;;;;;;3.10;2.35;;;;;;;;;;5001446;28;20034;-86
2023/04/30 14:39:43;;;;;;;2.95;2.20;;;;;;;;;;4999410;28;20031;-86
2023/04/30 14:42:09;;;;;;;2.60;2.20;;;;;;;;;;4993689;28;20034;-88
2023/04/30 14:44:36;;;;;;;3.20;2.20;;;;;;;;;;5004815;28;20037;-89
2023/04/30 14:47:02;;;;;;;2.95;2.28;;;;;;;;;;4998987;28;20097;-88